Time;durP1;ratioP1;P1;durP2;ratioP2;P2;SDS_P1;SDS_P2;PMS_P1;PMS_P2;Temp;Humidity;BMP_temperature;BMP_pressure;BME280_temperature;BME280_humidity;BME280_pressure;Samples;Min_cycle;Max_cycle;Signal;HPM_P1;HPM_P2
2023/11/20 00:01:33;;;;;;;;;11.00;11.00;;;;;10.89;100.00;98041.69;6115917;28;96792;-66
2023/11/20 00:04:37;;;;;;;;;10.00;9.60;;;;;10.85;100.00;98034.06;6155088;28;96824;-63
2023/11/20 00:07:41;;;;;;;;;14.25;13.00;;;;;10.90;100.00;98037.94;6139226;28;99480;-63
2023/11/20 00:10:44;;;;;;;;;15.00;14.00;;;;;10.94;100.00;98047.19;6162887;28;96310;-63
2023/11/20 00:13:47;;;;;;;;;11.60;11.00;;;;;11.00;100.00;98040.78;6163029;28;96288;-64
2023/11/20 00:16:52;;;;;;;;;15.00;13.40;;;;;11.04;100.00;98048.16;6167565;28;96702;-71
2023/11/20 00:19:55;;;;;;;;;14.00;13.00;;;;;11.02;100.00;98039.50;6187291;28;97628;-72
2023/11/20 00:22:58;;;;;;;;;13.40;12.00;;;;;10.98;100.00;98030.25;6185507;28;96714;-72
2023/11/20 00:26:02;;;;;;;;;12.00;11.00;;;;;10.99;100.00;98034.59;6173779;28;96308;-71
2023/11/20 00:29:05;;;;;;;;;12.60;11.60;;;;;10.98;100.00;98032.13;6176558;28;97492;-71
2023/11/20 00:32:10;;;;;;;;;11.20;11.20;;;;;10.93;100.00;98029.34;6161303;28;96910;-71
2023/11/20 00:35:16;;;;;;;;;12.00;12.00;;;;;10.94;100.00;98031.81;6153532;28;96864;-71
2023/11/20 00:38:19;;;;;;;;;11.20;11.00;;;;;10.95;100.00;98044.22;6160044;28;96596;-71
2023/11/20 00:41:22;;;;;;;;;12.25;11.25;;;;;10.97;100.00;98025.91;6168293;28;96888;-71
2023/11/20 00:44:25;;;;;;;;;10.20;9.80;;;;;10.97;100.00;98033.19;6187195;28;96503;-71
2023/11/20 00:47:29;;;;;;;;;13.00;12.00;;;;;10.98;100.00;98029.44;6177487;28;96352;-71
2023/11/20 00:50:33;;;;;;;;;9.80;9.00;;;;;10.90;100.00;98044.13;6144735;28;98176;-72
2023/11/20 00:53:36;;;;;;;;;12.00;11.00;;;;;10.93;100.00;98049.06;6129440;28;98476;-71
2023/11/20 00:56:39;;;;;;;;;10.40;9.00;;;;;10.97;100.00;98033.19;6142361;28;96466;-71
2023/11/20 00:59:42;;;;;;;;;11.00;11.00;;;;;10.91;100.00;98026.06;6146984;28;96605;-71
2023/11/20 01:02:48;;;;;;;;;13.40;11.00;;;;;10.94;100.00;98012.94;6160176;28;99236;-71
2023/11/20 01:05:52;;;;;;;;;12.00;11.50;;;;;10.90;100.00;98019.06;6157957;28;96606;-71
2023/11/20 01:08:56;;;;;;;;;11.25;11.25;;;;;10.90;100.00;98019.84;6157349;28;96703;-74
2023/11/20 01:11:59;;;;;;;;;8.50;8.00;;;;;10.94;100.00;98018.34;6165649;28;96340;-71
2023/11/20 01:15:03;;;;;;;;;7.60;7.00;;;;;10.96;100.00;98029.69;6164209;28;96427;-71
2023/11/20 01:18:11;;;;;;;;;7.00;6.60;;;;;10.99;100.00;98020.28;6165221;28;96549;-70
2023/11/20 01:21:15;;;;;;;;;6.60;6.00;;;;;11.03;100.00;98019.56;6164698;28;96415;-70
2023/11/20 01:24:18;;;;;;;;;6.00;6.00;;;;;10.96;100.00;97999.19;6157661;28;96940;-70
2023/11/20 01:27:21;;;;;;;;;6.00;6.00;;;;;11.02;100.00;97998.22;6147220;28;98463;-71
2023/11/20 01:30:24;;;;;;;;;8.00;7.50;;;;;11.14;100.00;98017.84;6165502;28;96482;-71
2023/11/20 01:33:28;;;;;;;;;5.00;5.00;;;;;11.19;100.00;98024.09;6174241;28;96906;-71
2023/11/20 01:36:32;;;;;;;;;6.50;6.50;;;;;11.19;100.00;98018.72;6152855;28;96361;-71
2023/11/20 01:39:37;;;;;;;;;5.00;5.00;;;;;11.24;100.00;98015.28;6140530;28;96495;-72
2023/11/20 01:42:40;;;;;;;;;4.00;4.00;;;;;11.32;100.00;98022.97;6141619;28;96301;-72
2023/11/20 01:45:43;;;;;;;;;4.00;4.00;;;;;11.32;100.00;98022.16;6141353;28;96948;-71
2023/11/20 01:48:48;;;;;;;;;2.75;2.75;;;;;11.26;100.00;98026.66;6154564;28;96311;-71
2023/11/20 01:51:52;;;;;;;;;2.60;2.00;;;;;11.30;100.00;98031.31;6190089;28;96357;-72
2023/11/20 01:54:55;;;;;;;;;5.00;4.00;;;;;11.36;100.00;98021.41;6189952;28;96233;-72
2023/11/20 01:57:59;;;;;;;;;5.40;5.00;;;;;11.33;100.00;98016.50;6182655;28;96804;-66
2023/11/20 02:01:04;;;;;;;;;3.00;3.00;;;;;11.46;100.00;98026.13;6155232;28;96276;-65
2023/11/20 02:04:10;;;;;;;;;4.40;4.00;;;;;11.47;100.00;98017.78;6212678;22;96526;-65
2023/11/20 02:07:13;;;;;;;;;4.00;4.00;;;;;11.49;100.00;98022.91;6192441;28;98559;-65
2023/11/20 02:10:18;;;;;;;;;6.20;5.00;;;;;11.54;100.00;98028.41;6190334;28;96447;-65
2023/11/20 02:13:21;;;;;;;;;5.25;5.00;;;;;11.55;100.00;98030.84;6207399;28;96282;-65
2023/11/20 02:16:24;;;;;;;;;6.20;6.00;;;;;11.55;100.00;98027.34;6196043;28;96968;-66
2023/11/20 02:19:29;;;;;;;;;5.00;5.00;;;;;11.62;100.00;98025.28;6178877;28;97239;-65
2023/11/20 02:22:33;;;;;;;;;4.00;3.60;;;;;11.63;100.00;98026.94;6196550;28;97103;-64
2023/11/20 02:25:37;;;;;;;;;5.00;4.00;;;;;11.68;100.00;98024.25;6195390;28;98929;-64
2023/11/20 02:28:41;;;;;;;;;4.00;4.00;;;;;11.70;100.00;98011.34;6214219;28;96406;-64
2023/11/20 02:31:47;;;;;;;;;4.50;4.00;;;;;11.78;100.00;98019.03;6214554;28;96387;-64
2023/11/20 02:34:51;;;;;;;;;4.00;4.00;;;;;11.75;100.00;98003.34;6214443;28;96229;-63
2023/11/20 02:37:54;;;;;;;;;4.00;4.00;;;;;11.77;100.00;98011.19;6194402;28;96935;-68
2023/11/20 02:40:58;;;;;;;;;5.50;5.00;;;;;11.78;100.00;98013.63;6177198;28;96713;-68
2023/11/20 02:44:03;;;;;;;;;5.75;5.75;;;;;11.82;100.00;98011.28;6178720;28;96707;-68
2023/11/20 02:47:08;;;;;;;;;3.00;3.00;;;;;11.82;100.00;98012.09;6195350;28;96335;-68
2023/11/20 02:50:11;;;;;;;;;5.00;5.00;;;;;11.86;100.00;98007.00;6212182;28;96259;-68
2023/11/20 02:53:15;;;;;;;;;5.00;4.00;;;;;11.86;100.00;98013.22;6195571;28;96869;-69
2023/11/20 02:56:18;;;;;;;;;5.00;5.00;;;;;11.92;100.00;98000.59;6174811;28;97389;-67
2023/11/20 02:59:22;;;;;;;;;6.00;5.00;;;;;11.99;100.00;98004.72;6193097;28;96476;-68
2023/11/20 03:02:26;;;;;;;;;4.60;4.00;;;;;12.03;100.00;98000.44;6175523;28;96692;-69
2023/11/20 03:05:30;;;;;;;;;4.60;4.60;;;;;12.10;100.00;98003.78;6211898;28;96298;-69
2023/11/20 03:08:33;;;;;;;;;7.00;5.00;;;;;12.20;100.00;97996.84;6184984;28;97384;-68
2023/11/20 03:11:37;;;;;;;;;5.00;5.00;;;;;12.25;100.00;98005.84;6195104;28;96480;-68
2023/11/20 03:14:40;;;;;;;;;4.80;4.80;;;;;12.25;100.00;98002.31;6207905;28;96935;-68
2023/11/20 03:17:44;;;;;;;;;5.00;5.00;;;;;12.22;100.00;97998.22;6195074;28;96357;-68
2023/11/20 03:20:48;;;;;;;;;5.80;5.00;;;;;12.26;100.00;97995.84;6211486;28;96611;-68
2023/11/20 03:23:52;;;;;;;;;3.20;3.20;;;;;12.27;100.00;98000.16;6192323;28;98934;-68
2023/11/20 03:26:57;;;;;;;;;5.25;4.25;;;;;12.23;100.00;97999.03;6177989;28;96905;-68
2023/11/20 03:30:01;;;;;;;;;3.75;3.00;;;;;12.29;100.00;98001.56;6212136;28;96360;-69
2023/11/20 03:33:05;;;;;;;;;4.00;4.00;;;;;12.33;100.00;97996.44;6211560;28;96521;-69
2023/11/20 03:36:09;;;;;;;;;6.00;5.00;;;;;12.33;100.00;97991.03;6212265;28;96379;-69
2023/11/20 03:39:12;;;;;;;;;3.75;3.00;;;;;12.32;100.00;97992.09;6199665;28;96598;-68
2023/11/20 03:42:15;;;;;;;;;3.20;3.00;;;;;12.35;100.00;97983.50;6188135;28;96389;-69
2023/11/20 03:45:19;;;;;;;;;5.00;5.00;;;;;12.34;100.00;97993.50;6207520;28;96341;-68
2023/11/20 03:48:23;;;;;;;;;3.00;3.00;;;;;12.35;100.00;97988.91;6193997;28;98696;-63
2023/11/20 03:51:26;;;;;;;;;4.00;4.00;;;;;12.29;100.00;97979.13;6210616;28;96284;-64
2023/11/20 03:54:30;;;;;;;;;7.00;7.00;;;;;12.34;100.00;97976.47;6205341;28;96926;-63
2023/11/20 03:57:33;;;;;;;;;7.00;7.00;;;;;12.33;100.00;97980.22;6190697;28;96358;-63
2023/11/20 04:00:36;;;;;;;;;5.00;5.00;;;;;12.31;100.00;97972.41;6187395;28;96345;-63
2023/11/20 04:03:41;;;;;;;;;7.00;6.40;;;;;12.15;100.00;97963.31;6194808;28;96455;-64
2023/11/20 04:06:44;;;;;;;;;5.00;5.00;;;;;12.17;100.00;97967.66;6188420;28;97128;-63
2023/11/20 04:09:47;;;;;;;;;5.50;5.00;;;;;12.08;100.00;97964.56;6176182;28;98434;-64
2023/11/20 04:12:50;;;;;;;;;3.00;3.00;;;;;12.12;100.00;97977.31;6195877;28;96536;-63
2023/11/20 04:15:54;;;;;;;;;4.80;4.80;;;;;12.19;100.00;97977.13;6193149;28;96883;-63
2023/11/20 04:18:59;;;;;;;;;5.00;5.00;;;;;12.25;100.00;97981.53;6196784;28;96779;-63
2023/11/20 04:22:02;;;;;;;;;6.00;5.20;;;;;12.24;100.00;97960.97;6192395;28;96843;-63
2023/11/20 04:25:06;;;;;;;;;5.00;4.00;;;;;12.32;100.00;97968.59;6181819;28;98613;-62
2023/11/20 04:28:10;;;;;;;;;4.00;4.00;;;;;12.33;100.00;97961.31;6218453;28;96510;-63
2023/11/20 04:31:13;;;;;;;;;6.00;5.00;;;;;12.35;100.00;97970.81;6197927;28;96481;-63
2023/11/20 04:34:18;;;;;;;;;4.00;3.60;;;;;12.37;100.00;97975.94;6199696;28;96387;-64
2023/11/20 04:37:21;;;;;;;;;3.40;3.40;;;;;12.34;100.00;97968.34;6205459;28;96740;-64
2023/11/20 04:40:25;;;;;;;;;3.80;3.80;;;;;12.32;100.00;97974.00;6215578;28;96318;-64
2023/11/20 04:43:28;;;;;;;;;4.00;4.00;;;;;12.29;100.00;97974.53;6205590;28;96856;-64
2023/11/20 04:46:31;;;;;;;;;4.50;4.00;;;;;12.30;100.00;97961.84;6193225;28;96830;-64
2023/11/20 04:49:38;;;;;;;;;3.25;3.25;;;;;12.28;100.00;97964.78;6187904;28;96790;-63
2023/11/20 04:52:41;;;;;;;;;4.00;3.00;;;;;12.25;100.00;97961.78;6193795;28;96381;-63
2023/11/20 04:55:44;;;;;;;;;6.00;6.00;;;;;12.27;100.00;97960.44;6208307;28;96905;-63
2023/11/20 04:58:47;;;;;;;;;6.60;6.60;;;;;12.20;100.00;97959.84;6199216;28;96645;-64
2023/11/20 05:01:50;;;;;;;;;5.00;5.00;;;;;12.17;100.00;97962.25;6211369;28;96298;-65
2023/11/20 05:04:56;;;;;;;;;3.20;3.00;;;;;12.17;100.00;97963.03;6216772;28;96418;-65
2023/11/20 05:08:00;;;;;;;;;4.20;4.20;;;;;12.19;100.00;97960.91;6216874;28;96508;-63
2023/11/20 05:11:04;;;;;;;;;4.50;4.50;;;;;12.23;100.00;97967.44;6198049;28;97111;-64
2023/11/20 05:14:07;;;;;;;;;5.60;4.00;;;;;12.12;100.00;97953.00;6211009;28;96903;-64
2023/11/20 05:17:10;;;;;;;;;4.80;4.80;;;;;12.11;100.00;97953.28;6208514;28;96716;-64
2023/11/20 05:20:15;;;;;;;;;4.40;4.00;;;;;12.21;100.00;97971.47;6197406;28;98381;-64
2023/11/20 05:23:19;;;;;;;;;5.60;5.00;;;;;12.27;100.00;97967.72;6215454;28;96483;-65
2023/11/20 05:26:23;;;;;;;;;5.00;4.75;;;;;12.28;100.00;97963.97;6197072;28;96746;-64
2023/11/20 05:29:26;;;;;;;;;6.60;5.60;;;;;12.33;100.00;97955.91;6196567;28;97216;-64
2023/11/20 05:32:29;;;;;;;;;5.00;5.00;;;;;12.33;100.00;97954.03;6215332;28;96747;-64
2023/11/20 05:35:33;;;;;;;;;4.00;4.00;;;;;12.26;100.00;97939.09;6174366;28;98608;-65
2023/11/20 05:38:37;;;;;;;;;4.00;3.00;;;;;12.32;100.00;97965.91;6210417;28;96646;-64
2023/11/20 05:41:40;;;;;;;;;5.00;5.00;;;;;12.37;100.00;97960.53;6207447;28;96830;-64
2023/11/20 05:44:43;;;;;;;;;4.00;4.00;;;;;12.37;100.00;97962.44;6180647;28;98748;-64
2023/11/20 05:47:47;;;;;;;;;5.00;5.00;;;;;12.41;100.00;97963.56;6214465;28;96700;-63
2023/11/20 05:50:51;;;;;;;;;5.00;4.00;;;;;12.44;100.00;97958.47;6190993;28;97679;-63
2023/11/20 05:53:55;;;;;;;;;4.00;4.00;;;;;12.40;100.00;97957.34;6211797;28;96438;-64
2023/11/20 05:56:58;;;;;;;;;2.00;2.00;;;;;12.43;100.00;97962.25;6183901;28;98184;-63
2023/11/20 06:00:02;;;;;;;;;3.00;3.00;;;;;12.47;100.00;97960.66;6190716;28;97346;-64
2023/11/20 06:03:13;;;;;;;;;3.50;3.00;;;;;12.53;100.00;97964.22;6210508;28;96872;-64
2023/11/20 06:06:21;;;;;;;;;4.00;2.00;;;;;12.55;100.00;97967.50;6208395;28;96471;-64
2023/11/20 06:09:24;;;;;;;;;4.40;4.00;;;;;12.59;100.00;97966.72;6212134;28;96297;-64
2023/11/20 06:12:27;;;;;;;;;3.00;3.00;;;;;12.61;100.00;97969.16;6164237;28;97457;-64
2023/11/20 06:15:30;;;;;;;;;3.00;3.00;;;;;12.61;100.00;97971.06;6193609;28;96753;-64
2023/11/20 06:18:33;;;;;;;;;3.00;3.00;;;;;12.62;100.00;97965.38;6212592;28;96597;-63
2023/11/20 06:21:45;;;;;;;;;3.00;3.00;;;;;12.61;100.00;97960.25;6212124;28;96391;-64
2023/11/20 06:24:48;;;;;;;;;3.00;3.00;;;;;12.61;100.00;97954.84;6194481;28;96817;-63
2023/11/20 06:27:51;;;;;;;;;3.00;3.00;;;;;12.61;100.00;97963.75;6211394;28;96507;-62
2023/11/20 06:30:54;;;;;;;;;3.20;3.20;;;;;12.64;100.00;97970.53;6173443;28;96701;-63
2023/11/20 06:33:58;;;;;;;;;4.00;4.00;;;;;12.63;100.00;97968.91;6211187;28;96294;-63
2023/11/20 06:37:03;;;;;;;;;3.00;3.00;;;;;12.63;100.00;97971.59;6195384;28;96763;-64
2023/11/20 06:40:08;;;;;;;;;3.00;3.00;;;;;12.67;100.00;97980.81;6196586;28;97281;-63
2023/11/20 06:43:11;;;;;;;;;3.00;2.00;;;;;12.71;100.00;97979.22;6194623;28;96306;-63
2023/11/20 06:46:18;;;;;;;;;2.00;2.00;;;;;12.70;100.00;97974.94;6213893;28;96417;-63
2023/11/20 06:49:21;;;;;;;;;4.00;2.25;;;;;12.76;100.00;97985.50;6215147;28;96305;-63
2023/11/20 06:52:25;;;;;;;;;5.00;5.00;;;;;12.78;100.00;97977.97;6214740;28;96407;-63
2023/11/20 06:55:30;;;;;;;;;2.60;2.20;;;;;12.80;100.00;97980.41;6214361;28;96299;-63
2023/11/20 06:58:34;;;;;;;;;4.00;3.00;;;;;12.82;100.00;97983.66;6214569;28;96377;-62
2023/11/20 07:01:44;;;;;;;;;5.00;5.00;;;;;12.83;100.00;97985.31;6195412;28;98454;-64
2023/11/20 07:04:47;;;;;;;;;3.20;3.00;;;;;12.81;100.00;97985.56;6188064;28;99094;-64
2023/11/20 07:07:52;;;;;;;;;3.00;3.00;;;;;12.82;100.00;97986.38;6187949;28;96731;-64
2023/11/20 07:10:56;;;;;;;;;2.20;2.20;;;;;12.86;100.00;97990.19;6191395;28;96349;-63
2023/11/20 07:13:59;;;;;;;;;2.40;2.40;;;;;12.85;100.00;97988.56;6213564;28;96372;-62
2023/11/20 07:17:02;;;;;;;;;2.60;2.00;;;;;12.85;100.00;97986.66;6213783;28;96362;-63
2023/11/20 07:20:07;;;;;;;;;3.00;3.00;;;;;12.85;100.00;97994.00;6212537;28;96591;-64
2023/11/20 07:23:12;;;;;;;;;3.60;3.60;;;;;12.87;100.00;97987.22;6213774;28;96943;-63
2023/11/20 07:26:17;;;;;;;;;2.50;2.50;;;;;12.84;100.00;97976.94;6212458;28;96623;-63
2023/11/20 07:29:20;;;;;;;;;3.00;3.00;;;;;12.87;100.00;97987.22;6214346;28;96274;-63
2023/11/20 07:32:23;;;;;;;;;5.00;3.00;;;;;12.89;100.00;97985.09;6214029;28;96365;-63
2023/11/20 07:35:27;;;;;;;;;2.00;2.00;;;;;12.90;100.00;97992.13;6195259;28;98390;-64
2023/11/20 07:38:32;;;;;;;;;3.20;3.00;;;;;12.92;100.00;97992.69;6195856;28;98558;-64
2023/11/20 07:41:35;;;;;;;;;3.00;3.00;;;;;12.88;100.00;97980.75;6195402;28;97279;-63
2023/11/20 07:44:38;;;;;;;;;3.00;3.00;;;;;13.00;100.00;97986.78;6214062;28;97300;-64
2023/11/20 07:47:42;;;;;;;;;3.40;3.00;;;;;12.98;100.00;97978.13;6213816;28;96899;-64
2023/11/20 07:50:48;;;;;;;;;5.00;4.00;;;;;13.10;100.00;97991.47;6214240;28;96291;-64
2023/11/20 07:53:53;;;;;;;;;3.00;2.00;;;;;13.10;100.00;97994.16;6196416;28;96499;-63
2023/11/20 07:56:56;;;;;;;;;4.00;3.00;;;;;13.10;100.00;97982.53;6197105;28;96336;-64
2023/11/20 08:00:00;;;;;;;;;4.20;4.00;;;;;13.08;100.00;97981.97;6200710;28;97357;-63
2023/11/20 08:03:04;;;;;;;;;4.00;4.00;;;;;13.22;100.00;97989.44;6217728;28;96393;-63
2023/11/20 08:06:07;;;;;;;;;4.80;4.00;;;;;13.16;100.00;97984.22;6200342;28;96416;-63
2023/11/20 08:09:23;;;;;;;;;5.00;4.00;;;;;13.29;100.00;97983.78;6183283;28;97427;-64
2023/11/20 08:12:27;;;;;;;;;5.40;5.00;;;;;13.35;100.00;97990.84;6218150;28;96445;-64
2023/11/20 08:15:30;;;;;;;;;4.00;3.00;;;;;13.42;100.00;97986.84;6200508;28;96424;-64
2023/11/20 08:18:34;;;;;;;;;5.00;4.40;;;;;13.45;100.00;97985.50;6200822;28;96538;-64
2023/11/20 08:21:37;;;;;;;;;4.00;4.00;;;;;13.42;100.00;97986.84;6198944;28;96697;-64
2023/11/20 08:24:43;;;;;;;;;4.00;4.00;;;;;13.41;100.00;97984.41;6211851;28;97218;-65
2023/11/20 08:27:48;;;;;;;;;3.40;3.00;;;;;13.37;100.00;97984.13;6217601;28;96297;-64
2023/11/20 08:30:52;;;;;;;;;5.00;4.00;;;;;13.28;100.00;97972.16;6217838;28;96843;-64
2023/11/20 08:33:55;;;;;;;;;2.00;2.00;;;;;13.41;100.00;97985.22;6182157;28;98967;-63
2023/11/20 08:36:58;;;;;;;;;2.00;2.00;;;;;13.47;100.00;97990.66;6216670;28;96466;-63
2023/11/20 08:40:06;;;;;;;;;3.00;3.00;;;;;13.43;100.00;97984.97;6199793;28;96405;-63
2023/11/20 08:43:09;;;;;;;;;4.50;4.00;;;;;13.49;100.00;97986.59;6217331;28;96367;-63
2023/11/20 08:46:12;;;;;;;;;4.00;3.40;;;;;13.57;100.00;97994.25;6217211;28;96521;-63
2023/11/20 08:49:18;;;;;;;;;4.00;4.00;;;;;13.57;100.00;97979.88;6182381;28;98444;-64
2023/11/20 08:52:21;;;;;;;;;6.00;4.00;;;;;13.57;100.00;97986.13;6217058;28;96314;-63
2023/11/20 08:55:26;;;;;;;;;4.00;3.00;;;;;13.60;100.00;97987.47;6217175;28;96427;-64
2023/11/20 08:58:29;;;;;;;;;3.00;3.00;;;;;13.62;100.00;97983.44;6217618;28;96979;-63
2023/11/20 09:01:34;;;;;;;;;4.00;4.00;;;;;13.74;100.00;97986.75;6181444;28;98577;-70
2023/11/20 09:04:37;;;;;;;;;4.00;4.00;;;;;13.94;100.00;97980.59;6198057;28;96439;-66
2023/11/20 09:07:41;;;;;;;;;3.00;2.20;;;;;14.09;100.00;97980.66;6216076;28;96764;-67
2023/11/20 09:10:46;;;;;;;;;5.00;4.60;;;;;14.17;100.00;97984.75;6215643;28;96903;-67
2023/11/20 09:13:50;;;;;;;;;3.80;3.40;;;;;14.31;100.00;97977.75;6196701;28;99041;-67
2023/11/20 09:16:54;;;;;;;;;3.00;3.00;;;;;14.36;100.00;97971.50;6212641;28;96411;-64
2023/11/20 09:19:57;;;;;;;;;6.00;5.80;;;;;14.32;100.00;97976.63;6198404;28;96660;-65
2023/11/20 09:23:00;;;;;;;;;3.00;3.00;;;;;14.26;100.00;97975.03;6216476;28;96275;-65
2023/11/20 09:26:08;;;;;;;;;4.00;3.40;;;;;14.14;100.00;97974.44;6216270;28;96285;-66
2023/11/20 09:29:11;;;;;;;;;4.00;4.00;;;;;14.02;100.00;97977.41;6198799;28;96860;-64
2023/11/20 09:32:15;;;;;;;;;5.00;5.00;;;;;13.95;100.00;97970.56;6216205;28;96904;-64
2023/11/20 09:35:20;;;;;;;;;3.25;3.25;;;;;13.98;100.00;97964.59;6201840;28;98381;-67
2023/11/20 09:38:23;;;;;;;;;4.20;4.00;;;;;13.92;100.00;97969.22;6179016;28;97410;-67
2023/11/20 09:41:28;;;;;;;;;2.50;2.50;;;;;13.84;100.00;97970.53;6212801;28;96803;-67
2023/11/20 09:44:35;;;;;;;;;3.20;3.00;;;;;13.80;100.00;97966.72;6212936;28;96841;-67
2023/11/20 09:47:38;;;;;;;;;5.00;4.00;;;;;13.79;100.00;97956.16;6195135;28;99506;-68
2023/11/20 09:50:43;;;;;;;;;7.00;6.00;;;;;13.73;100.00;97962.66;6195456;28;97020;-66
2023/11/20 09:53:50;;;;;;;;;4.00;4.00;;;;;13.71;100.00;97953.97;6215099;28;96394;-68
2023/11/20 09:56:55;;;;;;;;;4.00;4.00;;;;;13.61;100.00;97952.03;6196967;28;96871;-66
2023/11/20 09:59:58;;;;;;;;;5.40;4.80;;;;;13.69;100.00;97951.50;6196960;28;96316;-66
2023/11/20 10:03:02;;;;;;;;;4.60;4.00;;;;;13.80;100.00;97946.94;6195341;28;96751;-66
2023/11/20 10:06:08;;;;;;;;;6.20;5.00;;;;;13.77;100.00;97951.00;6179084;28;97274;-66
2023/11/20 10:09:13;;;;;;;;;3.60;3.60;;;;;13.81;100.00;97957.53;6213980;28;96368;-67
2023/11/20 10:12:17;;;;;;;;;6.00;5.00;;;;;13.78;100.00;97955.34;6179739;28;97305;-67
2023/11/20 10:15:21;;;;;;;;;4.50;4.50;;;;;13.87;100.00;97951.06;6197043;28;96348;-67
2023/11/20 10:18:24;;;;;;;;;3.80;3.80;;;;;13.83;100.00;97949.94;6214547;28;96400;-66
2023/11/20 10:21:29;;;;;;;;;4.00;3.40;;;;;13.79;100.00;97948.84;6213257;28;96742;-67
2023/11/20 10:24:32;;;;;;;;;4.00;4.00;;;;;13.86;100.00;97945.91;6189656;28;96172;-67
2023/11/20 10:27:37;;;;;;;;;4.20;4.00;;;;;13.86;100.00;97941.28;6172739;28;96975;-66
2023/11/20 10:30:43;;;;;;;;;5.20;4.80;;;;;13.95;100.00;97943.47;6173231;28;96444;-68
2023/11/20 10:33:46;;;;;;;;;5.80;5.20;;;;;13.98;100.00;97938.34;6207538;28;97059;-67
2023/11/20 10:37:04;;;;;;;;;6.00;5.00;;;;;13.98;100.00;97941.03;6196390;28;96365;-68
2023/11/20 10:40:09;;;;;;;;;6.60;6.00;;;;;14.06;100.00;97935.13;6195800;28;97369;-66
2023/11/20 10:43:14;;;;;;;;;7.00;5.00;;;;;14.09;100.00;97929.16;6195639;28;96870;-67
2023/11/20 10:46:17;;;;;;;;;5.20;5.20;;;;;14.10;100.00;97921.84;6179228;28;96894;-66
2023/11/20 10:49:23;;;;;;;;;7.00;6.20;;;;;14.13;100.00;97926.72;6213393;28;96378;-71
2023/11/20 10:52:29;;;;;;;;;4.00;4.00;;;;;14.15;100.00;97905.59;6193418;28;96580;-71
2023/11/20 10:55:40;;;;;;;;;6.00;5.40;;;;;14.15;100.00;97900.16;6213736;28;96518;-72
2023/11/20 10:58:46;;;;;;;;;3.75;3.75;;;;;14.35;100.00;97911.06;6215179;28;96385;-70
2023/11/20 11:01:51;;;;;;;;;6.00;5.00;;;;;14.43;100.00;97915.97;6198180;28;96353;-71
2023/11/20 11:04:57;;;;;;;;;7.00;5.00;;;;;14.53;100.00;97899.69;6195710;28;96408;-69
2023/11/20 11:08:02;;;;;;;;;5.00;5.00;;;;;14.63;100.00;97896.16;6217312;28;96740;-70
2023/11/20 11:11:06;;;;;;;;;4.00;4.00;;;;;14.71;100.00;97901.84;6199558;28;96640;-71
2023/11/20 11:14:11;;;;;;;;;5.00;4.00;;;;;14.73;100.00;97891.56;6218543;28;96272;-70
2023/11/20 11:17:22;;;;;;;;;4.60;4.00;;;;;14.75;100.00;97883.16;6223778;28;96720;-70
2023/11/20 11:20:33;;;;;;;;;5.20;4.80;;;;;14.67;100.00;97880.97;6215720;28;96313;-74
2023/11/20 11:23:47;;;;;;;;;6.00;6.00;;;;;14.54;100.00;97876.09;6171460;28;96814;-71
2023/11/20 11:26:55;;;;;;;;;5.00;5.00;;;;;14.55;100.00;97878.56;6205370;28;96444;-73
2023/11/20 11:30:07;;;;;;;;;5.60;5.00;;;;;14.45;100.00;97875.84;6189596;28;97466;-72
2023/11/20 11:33:44;;;;;;;;;6.00;4.00;;;;;14.31;100.00;97877.44;6224067;28;96332;-73
2023/11/20 11:36:57;;;;;;;;;4.80;4.00;;;;;14.28;100.00;97867.09;6213080;28;96529;-75
2023/11/20 11:40:09;;;;;;;;;4.60;4.60;;;;;14.29;100.00;97871.44;6177596;28;97016;-75
2023/11/20 11:43:24;;;;;;;;;5.80;5.00;;;;;14.31;100.00;97866.59;6194606;28;97200;-74
2023/11/20 11:46:28;;;;;;;;;5.00;4.60;;;;;14.30;100.00;97865.78;6213053;28;96854;-75
2023/11/20 11:49:32;;;;;;;;;6.00;6.00;;;;;14.37;100.00;97870.16;6212796;28;96997;-74
2023/11/20 11:52:37;;;;;;;;;4.00;4.00;;;;;14.32;100.00;97870.91;6173972;28;98869;-74
2023/11/20 11:55:42;;;;;;;;;5.60;4.00;;;;;14.25;100.00;97871.19;6194330;28;97143;-76
2023/11/20 11:58:47;;;;;;;;;4.00;4.00;;;;;14.26;100.00;97880.13;6218393;28;96330;-75
2023/11/20 12:01:51;;;;;;;;;5.00;4.00;;;;;14.27;100.00;97881.75;6197268;28;97082;-74
2023/11/20 12:05:07;;;;;;;;;4.40;4.20;;;;;14.23;100.00;97870.63;6209854;28;96288;-74
2023/11/20 12:08:12;;;;;;;;;5.40;5.40;;;;;14.20;100.00;97871.19;6210667;28;96332;-74
2023/11/20 12:11:47;;;;;;;;;5.00;5.00;;;;;14.24;100.00;97860.59;6210470;28;96585;-74
2023/11/20 12:14:51;;;;;;;;;6.00;5.00;;;;;14.30;100.00;97854.94;6199236;28;96401;-74
2023/11/20 12:17:56;;;;;;;;;6.75;5.00;;;;;14.32;100.00;97852.75;6193207;28;96786;-73
2023/11/20 12:21:03;;;;;;;;;6.80;5.80;;;;;14.27;100.00;97852.72;6173622;28;97548;-72
2023/11/20 12:24:07;;;;;;;;;5.80;5.00;;;;;14.39;100.00;97851.69;6201500;28;97340;-74
2023/11/20 12:27:11;;;;;;;;;5.00;5.00;;;;;14.36;100.00;97849.50;6193418;28;97142;-74
2023/11/20 12:30:14;;;;;;;;;5.00;5.00;;;;;14.28;100.00;97846.25;6212327;28;96925;-74
2023/11/20 12:33:19;;;;;;;;;4.20;4.20;;;;;14.27;100.00;97847.31;6194565;28;96367;-74
2023/11/20 12:36:22;;;;;;;;;5.00;5.00;;;;;14.28;100.00;97837.28;6192743;28;97197;-74
2023/11/20 12:39:29;;;;;;;;;5.00;5.00;;;;;14.24;100.00;97841.63;6191526;28;98356;-73
2023/11/20 12:42:33;;;;;;;;;5.00;5.00;;;;;14.30;100.00;97838.66;6172874;28;98948;-74
2023/11/20 12:45:36;;;;;;;;;6.80;5.20;;;;;14.28;100.00;97832.69;6178964;28;98472;-72
2023/11/20 12:48:40;;;;;;;;;4.80;4.20;;;;;14.25;100.00;97835.94;6213981;28;96960;-74
2023/11/20 12:51:44;;;;;;;;;4.00;4.00;;;;;14.24;100.00;97836.22;6213905;28;97569;-73
2023/11/20 12:54:47;;;;;;;;;5.80;4.00;;;;;14.26;100.00;97832.16;6215561;28;96450;-75
2023/11/20 12:57:54;;;;;;;;;5.00;5.00;;;;;14.33;100.00;97838.09;6178890;28;96669;-75
2023/11/20 13:00:59;;;;;;;;;4.20;3.20;;;;;14.37;100.00;97832.19;6215112;28;96564;-75
2023/11/20 13:04:07;;;;;;;;;4.00;3.25;;;;;14.34;100.00;97828.06;6196958;28;96352;-75
2023/11/20 13:07:11;;;;;;;;;4.00;4.00;;;;;14.30;100.00;97825.09;6204958;28;96819;-74
2023/11/20 13:10:16;;;;;;;;;4.20;4.20;;;;;14.35;100.00;97831.59;6169696;28;97255;-76
2023/11/20 13:13:22;;;;;;;;;5.00;5.00;;;;;14.37;100.00;97830.25;6193209;28;96784;-76
2023/11/20 13:16:25;;;;;;;;;6.40;6.40;;;;;14.39;100.00;97825.41;6214735;28;96373;-77
2023/11/20 13:19:41;;;;;;;;;5.00;4.00;;;;;14.47;100.00;97822.13;6183991;28;98523;-75
2023/11/20 13:22:45;;;;;;;;;3.75;3.75;;;;;14.48;100.00;97822.94;6213829;28;96506;-75
2023/11/20 13:25:50;;;;;;;;;7.00;6.00;;;;;14.48;100.00;97829.19;6195910;28;96436;-75
2023/11/20 13:28:53;;;;;;;;;7.25;6.75;;;;;14.28;100.00;97797.44;6196889;28;98614;-75
2023/11/20 13:31:56;;;;;;;;;7.00;6.00;;;;;14.35;100.00;97826.19;6196730;28;98739;-76
2023/11/20 13:35:01;;;;;;;;;5.60;5.00;;;;;14.35;100.00;97821.56;6212898;28;96370;-76
2023/11/20 13:38:05;;;;;;;;;6.00;5.00;;;;;14.39;100.00;97824.56;6177075;28;96941;-73
2023/11/20 13:41:08;;;;;;;;;4.50;4.00;;;;;14.37;100.00;97815.94;6179843;28;98455;-72
2023/11/20 13:44:11;;;;;;;;;6.00;6.00;;;;;14.35;100.00;97821.56;6214181;28;96658;-72
2023/11/20 13:47:15;;;;;;;;;6.20;5.20;;;;;14.33;100.00;97823.72;6213481;28;97216;-72
2023/11/20 13:50:19;;;;;;;;;6.00;5.00;;;;;14.32;100.00;97822.09;6213741;28;97633;-70
2023/11/20 13:53:24;;;;;;;;;6.75;6.00;;;;;14.26;100.00;97818.59;6196703;28;96750;-73
2023/11/20 13:56:27;;;;;;;;;5.00;5.00;;;;;14.25;100.00;97813.44;6210257;28;96939;-72
2023/11/20 13:59:30;;;;;;;;;6.40;6.40;;;;;14.26;100.00;97813.19;6195829;28;99095;-71
2023/11/20 14:02:33;;;;;;;;;8.00;7.00;;;;;14.11;100.00;97801.53;6212905;28;96535;-71
2023/11/20 14:05:38;;;;;;;;;8.80;7.20;;;;;14.22;100.00;97819.41;6177348;28;96742;-71
2023/11/20 14:08:41;;;;;;;;;6.00;5.25;;;;;14.19;100.00;97814.53;6195889;28;96451;-72
2023/11/20 14:11:44;;;;;;;;;6.00;5.20;;;;;14.19;100.00;97811.81;6214343;28;96454;-73
2023/11/20 14:14:47;;;;;;;;;5.00;4.75;;;;;14.15;100.00;97816.16;6214343;28;96562;-72
2023/11/20 14:17:52;;;;;;;;;7.00;7.00;;;;;14.10;100.00;97816.16;6195775;28;98396;-68